createdAt,value
2019-05-21T00:00:09.946Z,8.53
2019-05-21T00:02:38.740Z,7.35
2019-05-21T00:05:08.325Z,7.92
2019-05-21T00:07:37.063Z,6.78
2019-05-21T00:10:08.191Z,6.92
2019-05-21T00:12:36.964Z,7.65
2019-05-21T00:15:06.812Z,6.80
2019-05-21T00:17:35.545Z,6.12
2019-05-21T00:20:06.186Z,6.70
2019-05-21T00:22:35.231Z,6.50
2019-05-21T00:25:06.435Z,6.83
2019-05-21T00:27:35.235Z,6.92
2019-05-21T00:30:40.396Z,6.15
2019-05-21T00:33:45.437Z,6.75
2019-05-21T00:36:52.181Z,6.90
2019-05-21T00:39:57.651Z,6.35
2019-05-21T00:42:31.966Z,6.97
2019-05-21T00:45:00.789Z,6.90
2019-05-21T00:47:29.704Z,6.50
2019-05-21T00:49:58.526Z,6.40
2019-05-21T00:52:27.373Z,6.40
2019-05-21T00:54:56.595Z,6.50
2019-05-21T00:57:25.352Z,7.15
2019-05-21T00:59:54.095Z,7.08
2019-05-21T01:02:22.816Z,6.70
2019-05-21T01:05:00.327Z,6.85
2019-05-21T01:07:22.137Z,6.95
2019-05-21T01:09:51.154Z,7.00
2019-05-21T01:12:19.877Z,6.80
2019-05-21T01:14:48.720Z,6.58
2019-05-21T01:17:17.453Z,6.55
2019-05-21T01:19:46.177Z,6.65
2019-05-21T01:22:14.896Z,6.92
2019-05-21T01:24:43.749Z,6.83
2019-05-21T01:27:12.450Z,7.05
2019-05-21T01:29:41.302Z,6.67
2019-05-21T01:32:10.154Z,6.90
2019-05-21T01:34:38.997Z,6.87
2019-05-21T01:37:07.802Z,6.42
2019-05-21T01:39:36.521Z,6.25
2019-05-21T01:42:05.234Z,6.22
2019-05-21T01:44:34.058Z,6.08
2019-05-21T01:47:02.775Z,6.12
2019-05-21T01:49:31.636Z,6.05
2019-05-21T01:52:00.334Z,5.65
2019-05-21T01:54:29.049Z,5.78
2019-05-21T01:56:57.959Z,5.78
2019-05-21T01:59:26.683Z,5.70
2019-05-21T02:01:55.432Z,6.50
2019-05-21T02:04:24.159Z,6.10
2019-05-21T02:06:52.997Z,6.03
2019-05-21T02:09:21.773Z,6.33
2019-05-21T02:11:50.653Z,6.17
2019-05-21T02:14:19.403Z,5.90
2019-05-21T02:16:48.212Z,6.53
2019-05-21T02:19:16.936Z,6.40
2019-05-21T02:21:45.814Z,6.53
2019-05-21T02:24:14.568Z,7.30
2019-05-21T02:26:43.460Z,7.33
2019-05-21T02:29:12.337Z,7.40
2019-05-21T02:31:41.184Z,8.00
2019-05-21T02:34:09.974Z,8.18
2019-05-21T02:36:38.681Z,7.60
2019-05-21T02:39:08.121Z,8.58
2019-05-21T02:41:36.881Z,7.92
2019-05-21T02:44:05.628Z,8.28
2019-05-21T02:46:34.376Z,10.43
2019-05-21T02:49:03.213Z,10.82
2019-05-21T02:51:31.957Z,10.55
2019-05-21T02:54:00.730Z,8.00
2019-05-21T02:56:29.674Z,7.20
2019-05-21T02:58:58.427Z,8.58
2019-05-21T03:01:28.916Z,7.00
2019-05-21T03:03:57.613Z,6.78
2019-05-21T03:06:26.340Z,7.60
2019-05-21T03:08:55.110Z,6.67
2019-05-21T03:11:23.914Z,7.03
2019-05-21T03:13:52.978Z,6.20
2019-05-21T03:16:21.695Z,6.40
2019-05-21T03:18:50.478Z,6.62
2019-05-21T03:21:19.193Z,6.28
2019-05-21T03:23:48.187Z,6.80
2019-05-21T03:26:16.905Z,6.50
2019-05-21T03:28:45.882Z,5.83
2019-05-21T03:31:14.613Z,6.20
2019-05-21T03:33:43.467Z,6.53
2019-05-21T03:36:12.182Z,6.17
2019-05-21T03:38:41.119Z,6.55
2019-05-21T03:41:09.839Z,6.12
2019-05-21T03:43:38.699Z,6.70
2019-05-21T03:46:07.448Z,5.45
2019-05-21T03:48:36.875Z,5.28
2019-05-21T03:51:05.577Z,6.47
2019-05-21T03:53:35.797Z,6.10
2019-05-21T03:56:04.638Z,6.30
2019-05-21T03:58:33.467Z,6.30
2019-05-21T04:01:02.220Z,5.90
2019-05-21T04:03:30.942Z,6.85
2019-05-21T04:05:59.870Z,5.50
2019-05-21T04:08:28.653Z,8.50
2019-05-21T04:10:57.405Z,12.03
2019-05-21T04:13:26.287Z,8.70
2019-05-21T04:15:59.456Z,5.87
2019-05-21T04:18:29.812Z,5.37
2019-05-21T04:20:58.624Z,5.28
2019-05-21T04:23:27.283Z,5.85
2019-05-21T04:25:57.849Z,5.55
2019-05-21T04:28:26.580Z,5.10
2019-05-21T04:30:55.545Z,5.47
2019-05-21T04:33:26.390Z,6.10
2019-05-21T04:35:55.297Z,5.22
2019-05-21T04:38:23.978Z,4.60
2019-05-21T04:40:52.842Z,4.92
2019-05-21T04:43:21.641Z,4.55
2019-05-21T04:45:50.345Z,5.55
2019-05-21T04:48:19.085Z,5.05
2019-05-21T04:50:47.977Z,4.28
2019-05-21T04:53:16.721Z,5.40
2019-05-21T04:55:47.270Z,5.08
2019-05-21T04:58:15.977Z,4.67
2019-05-21T05:00:44.841Z,4.83
2019-05-21T05:03:14.846Z,4.40
2019-05-21T05:05:43.542Z,4.35
2019-05-21T05:08:12.270Z,4.17
2019-05-21T05:10:40.981Z,4.47
2019-05-21T05:13:09.880Z,4.70
2019-05-21T05:15:40.732Z,4.33
2019-05-21T05:18:09.163Z,4.20
2019-05-21T05:20:38.986Z,4.55
2019-05-21T05:23:07.816Z,11.03
2019-05-21T05:25:36.549Z,6.28
2019-05-21T05:28:05.395Z,3.33
2019-05-21T05:30:34.062Z,4.60
2019-05-21T05:33:02.853Z,4.08
2019-05-21T05:35:31.566Z,4.40
2019-05-21T05:38:00.372Z,7.15
2019-05-21T05:40:29.201Z,3.92
2019-05-21T05:42:57.972Z,4.37
2019-05-21T05:45:28.548Z,4.08
2019-05-21T05:47:57.362Z,8.17
2019-05-21T05:50:36.843Z,3.95
2019-05-21T05:53:05.691Z,4.10
2019-05-21T05:55:34.389Z,4.75
2019-05-21T05:58:03.204Z,5.33
2019-05-21T06:00:31.921Z,4.45
2019-05-21T06:03:00.647Z,3.95
2019-05-21T06:05:29.449Z,4.83
2019-05-21T06:08:00.232Z,5.65
2019-05-21T06:10:28.651Z,5.03
2019-05-21T06:12:57.461Z,4.03
2019-05-21T06:15:26.204Z,4.33
2019-05-21T06:17:55.086Z,4.15
2019-05-21T06:20:24.306Z,4.67
2019-05-21T06:22:53.155Z,3.65
2019-05-21T06:25:23.797Z,4.03
2019-05-21T06:27:52.466Z,4.62
2019-05-21T06:30:21.297Z,4.62
2019-05-21T06:32:50.099Z,3.70
2019-05-21T06:35:18.989Z,3.90
2019-05-21T06:37:47.714Z,5.17
2019-05-21T06:40:16.762Z,3.75
2019-05-21T06:42:45.508Z,4.25
2019-05-21T06:45:15.035Z,4.33
2019-05-21T06:47:43.834Z,3.70
2019-05-21T06:50:12.801Z,4.75
2019-05-21T06:52:41.556Z,3.87
2019-05-21T06:55:11.023Z,3.35
2019-05-21T06:57:39.870Z,3.35
2019-05-21T07:00:09.341Z,3.20
2019-05-21T07:02:38.141Z,3.45
2019-05-21T07:05:06.875Z,3.50
2019-05-21T07:07:35.737Z,3.55
2019-05-21T07:10:07.822Z,3.77
2019-05-21T07:12:36.584Z,3.58
2019-05-21T07:15:08.287Z,3.30
2019-05-21T07:17:37.491Z,3.33
2019-05-21T07:20:07.501Z,3.50
2019-05-21T07:22:36.300Z,3.55
2019-05-21T07:25:06.373Z,3.83
2019-05-21T07:27:35.089Z,3.67
2019-05-21T07:30:05.219Z,3.47
2019-05-21T07:32:34.021Z,3.20
2019-05-21T07:35:02.726Z,3.40
2019-05-21T07:37:31.465Z,3.72
2019-05-21T07:40:00.241Z,3.45
2019-05-21T07:42:28.953Z,3.50
2019-05-21T07:44:59.316Z,3.62
2019-05-21T07:47:28.041Z,3.37
2019-05-21T07:49:56.767Z,3.45
2019-05-21T07:52:25.502Z,3.08
2019-05-21T07:54:54.306Z,3.00
2019-05-21T07:57:23.060Z,2.85
2019-05-21T07:59:51.799Z,2.98
2019-05-21T08:02:20.524Z,2.90
2019-05-21T08:04:49.261Z,3.10
2019-05-21T08:07:18.065Z,3.05
2019-05-21T08:09:46.799Z,3.55
2019-05-21T08:12:35.470Z,3.17
2019-05-21T08:14:45.911Z,3.10
2019-05-21T08:17:14.673Z,3.52
2019-05-21T08:19:43.405Z,3.77
2019-05-21T08:22:12.250Z,4.00
2019-05-21T08:24:40.980Z,3.50
2019-05-21T08:27:09.664Z,3.22
2019-05-21T08:29:38.393Z,3.20
2019-05-21T08:32:07.183Z,3.22
2019-05-21T08:34:35.905Z,3.10
2019-05-21T08:37:04.710Z,3.47
2019-05-21T08:39:34.101Z,3.70
2019-05-21T08:42:02.935Z,3.27
2019-05-21T08:44:31.686Z,3.42
2019-05-21T08:47:00.472Z,3.37
2019-05-21T08:49:29.371Z,2.80
2019-05-21T08:51:58.361Z,3.50
2019-05-21T08:54:45.299Z,3.27
2019-05-21T08:57:14.051Z,3.20
2019-05-21T08:59:42.718Z,3.08
2019-05-21T09:02:11.529Z,3.22
2019-05-21T09:04:46.188Z,4.45
2019-05-21T09:07:11.011Z,3.87
2019-05-21T09:09:50.270Z,3.40
2019-05-21T09:12:10.178Z,3.45
2019-05-21T09:14:38.949Z,2.77
2019-05-21T09:17:07.812Z,3.33
2019-05-21T09:19:36.896Z,3.60
2019-05-21T09:22:12.506Z,3.02
2019-05-21T09:24:41.243Z,3.12
2019-05-21T09:27:10.024Z,3.45
2019-05-21T09:29:38.761Z,3.58
2019-05-21T09:32:07.607Z,3.70
2019-05-21T09:34:48.017Z,2.98
2019-05-21T09:37:19.311Z,4.05
2019-05-21T09:39:37.165Z,3.17
2019-05-21T09:42:06.037Z,3.80
2019-05-21T09:44:34.766Z,3.42
2019-05-21T09:47:03.483Z,3.65
2019-05-21T09:49:32.224Z,3.55
2019-05-21T09:52:00.971Z,3.70
2019-05-21T09:54:29.784Z,3.47
2019-05-21T09:57:00.360Z,4.40
2019-05-21T09:59:34.599Z,4.15
2019-05-21T10:02:05.026Z,4.35
2019-05-21T10:04:34.179Z,3.58
2019-05-21T10:07:02.902Z,3.98
2019-05-21T10:09:31.698Z,3.65
2019-05-21T10:12:00.556Z,3.12
2019-05-21T10:14:29.293Z,3.42
2019-05-21T10:16:58.043Z,3.37
2019-05-21T10:19:26.766Z,3.65
2019-05-21T10:21:57.101Z,3.22
2019-05-21T10:24:26.015Z,3.40
2019-05-21T10:26:54.873Z,2.90
2019-05-21T10:29:23.925Z,3.05
2019-05-21T10:31:52.691Z,3.50
2019-05-21T10:34:21.538Z,3.33
2019-05-21T10:36:50.284Z,3.40
2019-05-21T10:39:19.040Z,5.97
2019-05-21T10:41:47.745Z,3.92
2019-05-21T10:44:16.572Z,3.92
2019-05-21T10:46:45.365Z,4.17
2019-05-21T10:49:14.317Z,3.58
2019-05-21T10:51:43.063Z,3.70
2019-05-21T10:54:11.890Z,3.35
2019-05-21T10:56:47.991Z,3.70
2019-05-21T10:59:11.020Z,3.45
2019-05-21T11:01:47.442Z,3.80
2019-05-21T11:04:17.796Z,3.58
2019-05-21T11:06:48.004Z,3.05
2019-05-21T11:09:23.179Z,3.03
2019-05-21T11:11:52.048Z,3.30
2019-05-21T11:14:20.852Z,3.40
2019-05-21T11:16:49.665Z,3.62
2019-05-21T11:19:18.436Z,3.52
2019-05-21T11:21:47.147Z,3.90
2019-05-21T11:24:16.017Z,3.50
2019-05-21T11:26:44.920Z,3.58
2019-05-21T11:29:13.745Z,3.35
2019-05-21T11:31:55.836Z,3.27
2019-05-21T11:34:12.846Z,3.80
2019-05-21T11:36:41.572Z,3.83
2019-05-21T11:39:10.302Z,3.75
2019-05-21T11:41:39.086Z,3.40
2019-05-21T11:44:07.919Z,3.30
2019-05-21T11:46:37.607Z,3.10
2019-05-21T11:49:06.336Z,3.37
2019-05-21T11:51:35.173Z,2.87
2019-05-21T11:54:04.009Z,3.77
2019-05-21T11:56:36.078Z,3.50
2019-05-21T11:59:03.128Z,3.17
2019-05-21T12:01:31.906Z,3.35
2019-05-21T12:04:00.701Z,3.12
2019-05-21T12:06:29.428Z,4.12
2019-05-21T12:08:58.149Z,3.40
2019-05-21T12:11:26.888Z,3.10
2019-05-21T12:13:55.679Z,3.15
2019-05-21T12:16:24.468Z,3.02
2019-05-21T12:18:53.334Z,3.40
2019-05-21T12:21:22.177Z,3.25
2019-05-21T12:23:50.914Z,3.20
2019-05-21T12:26:19.632Z,3.95
2019-05-21T12:28:48.435Z,3.22
2019-05-21T12:31:20.192Z,3.35
2019-05-21T12:33:48.964Z,3.08
2019-05-21T12:36:17.874Z,3.02
2019-05-21T12:38:46.593Z,3.70
2019-05-21T12:41:15.401Z,3.42
2019-05-21T12:43:44.130Z,3.58
2019-05-21T12:46:12.859Z,3.55
2019-05-21T12:48:41.593Z,3.42
2019-05-21T12:51:10.329Z,3.30
2019-05-21T12:53:39.056Z,3.52
2019-05-21T12:56:07.835Z,3.12
2019-05-21T12:58:36.545Z,3.40
2019-05-21T13:01:05.865Z,3.25
2019-05-21T13:03:34.587Z,3.00
2019-05-21T13:06:03.388Z,3.80
2019-05-21T13:08:32.089Z,4.00
2019-05-21T13:11:00.814Z,3.02
2019-05-21T13:13:29.600Z,3.50
2019-05-21T13:15:58.390Z,3.52
2019-05-21T13:18:27.122Z,3.65
2019-05-21T13:20:55.848Z,3.92
2019-05-21T13:23:24.588Z,3.30
2019-05-21T13:25:53.625Z,4.28
2019-05-21T13:28:22.398Z,3.20
2019-05-21T13:30:51.140Z,3.67
2019-05-21T13:33:19.868Z,3.40
2019-05-21T13:35:48.594Z,3.42
2019-05-21T13:38:17.330Z,3.65
2019-05-21T13:40:46.512Z,3.33
2019-05-21T13:43:15.326Z,3.95
2019-05-21T13:45:44.080Z,3.20
2019-05-21T13:48:14.356Z,6.65
2019-05-21T13:50:45.269Z,3.67
2019-05-21T13:55:43.857Z,3.20
2019-05-21T13:58:12.805Z,3.72
2019-05-21T14:00:43.190Z,3.92
2019-05-21T14:03:12.821Z,3.40
2019-05-21T14:05:41.700Z,3.77
2019-05-21T14:08:10.434Z,3.90
2019-05-21T14:10:39.465Z,3.47
2019-05-21T14:13:08.340Z,2.80
2019-05-21T14:15:37.039Z,4.55
2019-05-21T14:18:05.740Z,3.75
2019-05-21T14:20:34.533Z,3.27
2019-05-21T14:23:03.331Z,2.85
2019-05-21T14:25:32.053Z,4.28
2019-05-21T14:28:00.909Z,3.42
2019-05-21T14:30:29.707Z,4.28
2019-05-21T14:32:58.543Z,4.05
2019-05-21T14:35:27.325Z,2.65
2019-05-21T14:37:56.110Z,4.62
2019-05-21T14:40:31.680Z,3.58
2019-05-21T14:43:00.428Z,3.75
2019-05-21T14:45:29.906Z,4.08
2019-05-21T14:47:57.815Z,3.20
2019-05-21T14:50:26.516Z,3.25
2019-05-21T14:52:55.337Z,2.83
2019-05-21T14:55:24.060Z,3.02
2019-05-21T14:57:52.786Z,3.27
2019-05-21T15:00:43.821Z,3.35
2019-05-21T15:03:23.881Z,2.90
2019-05-21T15:05:38.888Z,2.80
2019-05-21T15:08:07.767Z,7.45
2019-05-21T15:10:47.831Z,8.45
2019-05-21T15:15:36.214Z,10.70
2019-05-21T15:18:05.522Z,12.50
2019-05-21T15:20:51.037Z,10.30
2019-05-21T15:23:19.753Z,12.53
2019-05-21T15:25:48.477Z,11.68
2019-05-21T15:28:17.288Z,18.90
2019-05-21T15:30:46.007Z,10.82
2019-05-21T15:33:14.943Z,9.43
2019-05-21T15:35:43.650Z,8.43
2019-05-21T15:38:14.305Z,6.85
2019-05-21T15:40:42.984Z,7.42
2019-05-21T15:43:11.692Z,7.85
2019-05-21T15:45:40.521Z,8.55
2019-05-21T15:48:09.346Z,9.85
2019-05-21T15:50:38.184Z,9.68
2019-05-21T15:53:06.914Z,8.68
2019-05-21T15:55:35.633Z,9.73
2019-05-21T15:58:04.679Z,10.98
2019-05-21T16:00:34.133Z,11.08
2019-05-21T16:03:04.708Z,11.68
2019-05-21T16:05:33.951Z,12.13
2019-05-21T16:08:02.685Z,11.43
2019-05-21T16:10:31.557Z,11.55
2019-05-21T16:13:00.534Z,11.68
2019-05-21T16:15:29.372Z,11.70
2019-05-21T16:17:58.116Z,10.50
2019-05-21T16:20:26.946Z,10.82
2019-05-21T16:22:55.881Z,11.48
2019-05-21T16:25:24.772Z,10.25
2019-05-21T16:27:53.605Z,10.20
2019-05-21T16:30:22.906Z,12.30
2019-05-21T16:32:51.824Z,12.45
2019-05-21T16:35:20.569Z,12.93
2019-05-21T16:37:49.369Z,14.10
2019-05-21T16:40:19.857Z,16.67
2019-05-21T16:42:48.590Z,18.23
2019-05-21T16:45:18.584Z,17.40
2019-05-21T16:47:47.238Z,18.17
2019-05-21T16:50:17.056Z,18.48
2019-05-21T16:52:45.988Z,16.05
2019-05-21T16:55:15.280Z,15.05
2019-05-21T16:57:44.104Z,15.43
2019-05-21T17:00:15.071Z,15.18
2019-05-21T17:02:44.076Z,13.85
2019-05-21T17:05:12.765Z,13.35
2019-05-21T17:07:41.540Z,13.48
2019-05-21T17:10:11.713Z,14.00
2019-05-21T17:12:40.453Z,13.53
2019-05-21T17:15:09.883Z,13.40
2019-05-21T17:17:38.765Z,12.10
2019-05-21T17:20:09.314Z,11.00
2019-05-21T17:22:38.162Z,11.80
2019-05-21T17:25:10.261Z,10.38
2019-05-21T17:27:39.165Z,7.28
2019-05-21T17:30:11.323Z,6.90
2019-05-21T17:32:42.352Z,5.17
2019-05-21T17:37:39.220Z,4.42
2019-05-21T17:40:09.053Z,5.58
2019-05-21T17:42:38.000Z,4.00
2019-05-21T17:45:08.239Z,4.35
2019-05-21T17:47:36.966Z,4.17
2019-05-21T17:50:06.985Z,3.98
2019-05-21T17:52:39.214Z,4.40
2019-05-21T17:55:08.247Z,4.33
2019-05-21T17:57:38.335Z,4.15
2019-05-21T18:00:09.461Z,3.47
2019-05-21T18:05:08.393Z,4.58
2019-05-21T18:10:07.853Z,4.03
2019-05-21T18:12:37.146Z,3.90
2019-05-21T18:15:08.926Z,5.22
2019-05-21T18:17:38.481Z,3.65
2019-05-21T18:20:10.563Z,4.17
2019-05-21T18:22:40.322Z,3.85
2019-05-21T18:25:11.651Z,5.42
2019-05-21T18:27:41.041Z,8.70
2019-05-21T18:30:10.435Z,6.72
2019-05-21T18:32:39.276Z,3.85
2019-05-21T18:35:09.111Z,4.20
2019-05-21T18:37:39.204Z,3.42
2019-05-21T18:40:09.032Z,2.92
2019-05-21T18:42:37.765Z,3.37
2019-05-21T18:45:06.976Z,3.98
2019-05-21T18:47:35.707Z,4.05
2019-05-21T18:50:11.289Z,3.80
2019-05-21T18:52:40.037Z,4.03
2019-05-21T18:55:09.255Z,3.60
2019-05-21T18:57:38.001Z,4.28
2019-05-21T19:00:08.302Z,4.55
2019-05-21T19:02:37.080Z,5.92
2019-05-21T19:05:06.900Z,6.65
2019-05-21T19:07:36.477Z,5.90
2019-05-21T19:10:08.297Z,5.20
2019-05-21T19:12:38.662Z,5.35
2019-05-21T19:15:08.225Z,4.00
2019-05-21T19:17:36.947Z,5.00
2019-05-21T19:20:08.597Z,5.00
2019-05-21T19:22:37.336Z,5.10
2019-05-21T19:25:09.724Z,4.70
2019-05-21T19:27:38.449Z,6.17
2019-05-21T19:30:08.560Z,5.92
2019-05-21T19:32:37.292Z,5.72
2019-05-21T19:35:07.033Z,6.72
2019-05-21T19:37:35.756Z,5.35
2019-05-21T19:40:06.188Z,5.40
2019-05-21T19:42:34.919Z,5.83
2019-05-21T19:45:05.932Z,6.28
2019-05-21T19:47:34.790Z,5.83
2019-05-21T19:50:04.992Z,5.65
2019-05-21T19:52:33.804Z,6.08
2019-05-21T19:55:02.657Z,6.45
2019-05-21T19:57:33.029Z,5.97
2019-05-21T20:00:01.757Z,6.15
2019-05-21T20:02:30.558Z,6.35
2019-05-21T20:05:00.191Z,6.10
2019-05-21T20:07:31.257Z,6.25
2019-05-21T20:10:02.665Z,5.80
2019-05-21T20:12:31.841Z,7.25
2019-05-21T20:15:01.288Z,7.17
2019-05-21T20:17:31.275Z,6.22
2019-05-21T20:20:00.307Z,5.90
2019-05-21T20:22:31.861Z,6.78
2019-05-21T20:25:00.566Z,5.87
2019-05-21T20:27:30.451Z,6.87
2019-05-21T20:30:11.642Z,6.03
2019-05-21T20:32:31.512Z,5.50
2019-05-21T20:35:00.290Z,6.30
2019-05-21T20:37:29.700Z,5.65
2019-05-21T20:39:58.492Z,5.67
2019-05-21T20:42:29.201Z,5.85
2019-05-21T20:44:58.091Z,4.42
2019-05-21T20:47:26.955Z,6.30
2019-05-21T20:49:56.122Z,5.90
2019-05-21T20:52:25.859Z,6.20
2019-05-21T20:54:58.018Z,7.80
2019-05-21T20:57:29.229Z,5.78
2019-05-21T20:59:59.317Z,5.67
2019-05-21T21:02:30.087Z,6.20
2019-05-21T21:05:00.228Z,6.58
2019-05-21T21:07:32.648Z,5.85
2019-05-21T21:10:01.638Z,6.70
2019-05-21T21:12:31.838Z,5.70
2019-05-21T21:15:00.603Z,6.12
2019-05-21T21:17:29.463Z,6.05
2019-05-21T21:19:58.210Z,6.65
2019-05-21T21:22:27.022Z,7.72
2019-05-21T21:24:57.230Z,6.95
2019-05-21T21:27:27.040Z,6.40
2019-05-21T21:29:55.805Z,5.90
2019-05-21T21:32:24.555Z,5.75
2019-05-21T21:34:53.294Z,5.50
2019-05-21T21:37:22.093Z,6.12
2019-05-21T21:39:51.396Z,6.42
2019-05-21T21:42:20.515Z,5.92
2019-05-21T21:44:49.421Z,6.17
2019-05-21T21:47:18.189Z,6.40
2019-05-21T21:49:47.159Z,6.42
2019-05-21T21:52:16.602Z,7.00
2019-05-21T21:54:45.497Z,7.12
2019-05-21T21:57:14.377Z,8.18
2019-05-21T21:59:43.195Z,7.12
2019-05-21T22:02:31.178Z,7.85
2019-05-21T22:05:01.133Z,7.20
2019-05-21T22:07:30.958Z,7.65
2019-05-21T22:10:00.042Z,7.95
2019-05-21T22:12:28.782Z,7.42
2019-05-21T22:15:00.167Z,7.90
2019-05-21T22:17:29.176Z,8.08
2019-05-21T22:19:58.670Z,8.73
2019-05-21T22:22:30.057Z,8.78
2019-05-21T22:24:58.697Z,8.60
2019-05-21T22:27:27.436Z,8.33
2019-05-21T22:29:56.160Z,8.00
2019-05-21T22:32:25.459Z,8.85
2019-05-21T22:34:54.255Z,9.70
2019-05-21T22:37:23.652Z,8.65
2019-05-21T22:39:52.554Z,8.40
2019-05-21T22:42:22.924Z,9.28
2019-05-21T22:45:06.818Z,8.93
2019-05-21T22:47:23.090Z,9.48
2019-05-21T22:49:51.810Z,8.75
2019-05-21T22:52:20.534Z,9.13
2019-05-21T22:54:49.439Z,9.70
2019-05-21T22:57:18.150Z,10.45
2019-05-21T22:59:46.877Z,10.72
2019-05-21T23:02:17.449Z,10.13
2019-05-21T23:04:46.178Z,10.07
2019-05-21T23:07:15.089Z,9.80
2019-05-21T23:09:43.901Z,9.73
2019-05-21T23:12:12.807Z,9.68
2019-05-21T23:14:41.526Z,11.12
2019-05-21T23:17:11.124Z,10.38
2019-05-21T23:19:40.321Z,10.38
2019-05-21T23:22:11.987Z,10.63
2019-05-21T23:24:41.123Z,11.00
2019-05-21T23:27:11.995Z,10.50
2019-05-21T23:29:40.731Z,10.63
2019-05-21T23:32:10.233Z,11.08
2019-05-21T23:34:39.732Z,11.18
2019-05-21T23:37:10.102Z,11.18
2019-05-21T23:39:40.492Z,11.25
2019-05-21T23:42:10.509Z,12.23
2019-05-21T23:44:39.640Z,11.12
2019-05-21T23:47:10.409Z,13.43
2019-05-21T23:49:39.243Z,11.48
2019-05-21T23:52:07.964Z,12.37
2019-05-21T23:54:36.693Z,12.00
2019-05-21T23:57:05.481Z,12.95
2019-05-21T23:59:34.437Z,12.40
